sensor_id;sensor_type;location;lat;lon;timestamp;pressure;altitude;pressure_sealevel;temperature;humidity
50550;BME280;36505;52.512;13.460;2023-05-10T00:00:26;100744.69;;;11.39;54.37
50550;BME280;36505;52.512;13.460;2023-05-10T00:02:52;100721.41;;;11.25;54.58
50550;BME280;36505;52.512;13.460;2023-05-10T00:05:18;100740.16;;;11.33;54.71
50550;BME280;36505;52.512;13.460;2023-05-10T00:07:43;100733.09;;;11.20;55.20
50550;BME280;36505;52.512;13.460;2023-05-10T00:10:12;100740.34;;;11.26;54.97
50550;BME280;36505;52.512;13.460;2023-05-10T00:12:37;100692.66;;;10.94;55.12
50550;BME280;36505;52.512;13.460;2023-05-10T00:15:03;100741.09;;;11.22;55.44
50550;BME280;36505;52.512;13.460;2023-05-10T00:17:29;100704.53;;;10.99;55.30
50550;BME280;36505;52.512;13.460;2023-05-10T00:19:54;100713.84;;;10.98;55.50
50550;BME280;36505;52.512;13.460;2023-05-10T00:22:20;100699.72;;;10.90;55.56
50550;BME280;36505;52.512;13.460;2023-05-10T00:24:45;100663.66;;;10.64;55.49
50550;BME280;36505;52.512;13.460;2023-05-10T00:27:11;100682.69;;;10.71;55.79
50550;BME280;36505;52.512;13.460;2023-05-10T00:29:36;100653.38;;;10.55;55.60
50550;BME280;36505;52.512;13.460;2023-05-10T00:32:02;100690.16;;;10.76;56.00
50550;BME280;36505;52.512;13.460;2023-05-10T00:34:27;100692.91;;;10.76;56.07
50550;BME280;36505;52.512;13.460;2023-05-10T00:36:53;100715.97;;;10.80;56.40
50550;BME280;36505;52.512;13.460;2023-05-10T00:39:19;100708.97;;;10.72;56.57
50550;BME280;36505;52.512;13.460;2023-05-10T00:41:44;100695.59;;;10.59;56.97
50550;BME280;36505;52.512;13.460;2023-05-10T00:44:10;100704.66;;;10.59;57.18
50550;BME280;36505;52.512;13.460;2023-05-10T00:46:35;100714.34;;;10.50;57.49
50550;BME280;36505;52.512;13.460;2023-05-10T00:49:01;100702.72;;;10.43;57.78
50550;BME280;36505;52.512;13.460;2023-05-10T00:51:27;100694.28;;;10.33;58.14
50550;BME280;36505;52.512;13.460;2023-05-10T00:53:53;100688.22;;;10.31;57.99
50550;BME280;36505;52.512;13.460;2023-05-10T00:56:19;100688.63;;;10.23;58.27
50550;BME280;36505;52.512;13.460;2023-05-10T00:58:48;100675.78;;;10.12;58.48
50550;BME280;36505;52.512;13.460;2023-05-10T01:01:13;100658.25;;;9.96;59.02
50550;BME280;36505;52.512;13.460;2023-05-10T01:03:39;100681.75;;;10.09;59.12
50550;BME280;36505;52.512;13.460;2023-05-10T01:06:05;100637.94;;;9.80;59.22
50550;BME280;36505;52.512;13.460;2023-05-10T01:08:31;100692.09;;;10.07;59.38
50550;BME280;36505;52.512;13.460;2023-05-10T01:10:57;100627.13;;;9.62;59.77
50550;BME280;36505;52.512;13.460;2023-05-10T01:15:57;100629.06;;;9.62;60.03
50550;BME280;36505;52.512;13.460;2023-05-10T01:18:24;100625.97;;;9.58;60.22
50550;BME280;36505;52.512;13.460;2023-05-10T01:21:04;100682.63;;;9.86;60.54
50550;BME280;36505;52.512;13.460;2023-05-10T01:23:52;100674.09;;;9.82;60.73
50550;BME280;36505;52.512;13.460;2023-05-10T01:35:19;100680.28;;;9.66;61.76
50550;BME280;36505;52.512;13.460;2023-05-10T01:38:18;100673.88;;;9.61;62.26
50550;BME280;36505;52.512;13.460;2023-05-10T01:43:26;100659.13;;;9.50;62.28
50550;BME280;36505;52.512;13.460;2023-05-10T01:46:07;100665.22;;;9.52;62.37
50550;BME280;36505;52.512;13.460;2023-05-10T01:48:44;100669.25;;;9.49;62.41
50550;BME280;36505;52.512;13.460;2023-05-10T01:51:15;100603.00;;;9.07;62.61
50550;BME280;36505;52.512;13.460;2023-05-10T01:53:43;100632.91;;;9.26;62.95
50550;BME280;36505;52.512;13.460;2023-05-10T01:56:10;100642.06;;;9.31;63.02
50550;BME280;36505;52.512;13.460;2023-05-10T01:58:38;100645.25;;;9.28;63.38
50550;BME280;36505;52.512;13.460;2023-05-10T02:01:05;100668.41;;;9.37;63.40
50550;BME280;36505;52.512;13.460;2023-05-10T02:03:33;100641.22;;;9.19;63.42
50550;BME280;36505;52.512;13.460;2023-05-10T02:06:01;100632.19;;;9.19;63.49
50550;BME280;36505;52.512;13.460;2023-05-10T02:08:28;100645.97;;;9.24;63.43
50550;BME280;36505;52.512;13.460;2023-05-10T02:10:56;100645.25;;;9.17;63.42
50550;BME280;36505;52.512;13.460;2023-05-10T02:13:23;100630.44;;;9.13;63.44
50550;BME280;36505;52.512;13.460;2023-05-10T02:15:50;100647.88;;;9.23;63.65
50550;BME280;36505;52.512;13.460;2023-05-10T02:18:17;100642.28;;;9.18;63.70
50550;BME280;36505;52.512;13.460;2023-05-10T02:20:45;100630.88;;;9.09;63.66
50550;BME280;36505;52.512;13.460;2023-05-10T02:23:12;100654.41;;;9.22;63.78
50550;BME280;36505;52.512;13.460;2023-05-10T02:25:38;100633.63;;;9.09;64.06
50550;BME280;36505;52.512;13.460;2023-05-10T02:28:06;100626.47;;;9.08;63.80
50550;BME280;36505;52.512;13.460;2023-05-10T02:30:33;100633.72;;;9.03;63.92
50550;BME280;36505;52.512;13.460;2023-05-10T02:33:01;100640.28;;;9.14;64.18
50550;BME280;36505;52.512;13.460;2023-05-10T02:35:28;100608.31;;;8.91;64.18
50550;BME280;36505;52.512;13.460;2023-05-10T02:37:54;100632.31;;;9.00;64.40
50550;BME280;36505;52.512;13.460;2023-05-10T02:40:21;100632.91;;;9.02;64.34
50550;BME280;36505;52.512;13.460;2023-05-10T02:42:48;100642.31;;;9.06;64.40
50550;BME280;36505;52.512;13.460;2023-05-10T02:45:19;100595.13;;;8.76;64.40
50550;BME280;36505;52.512;13.460;2023-05-10T02:47:46;100652.84;;;9.03;64.33
50550;BME280;36505;52.512;13.460;2023-05-10T02:50:11;100640.97;;;8.97;64.56
50550;BME280;36505;52.512;13.460;2023-05-10T02:52:44;100646.66;;;8.96;64.47
50550;BME280;36505;52.512;13.460;2023-05-10T02:55:13;100646.91;;;8.94;64.70
50550;BME280;36505;52.512;13.460;2023-05-10T02:57:44;100648.44;;;8.90;64.71
50550;BME280;36505;52.512;13.460;2023-05-10T03:00:11;100635.03;;;8.77;64.98
50550;BME280;36505;52.512;13.460;2023-05-10T03:02:37;100655.91;;;8.83;65.07
50550;BME280;36505;52.512;13.460;2023-05-10T03:05:02;100642.28;;;8.83;64.82
50550;BME280;36505;52.512;13.460;2023-05-10T03:07:28;100633.72;;;8.80;64.99
50550;BME280;36505;52.512;13.460;2023-05-10T03:09:54;100638.47;;;8.73;65.15
50550;BME280;36505;52.512;13.460;2023-05-10T03:13:01;100650.78;;;8.75;65.17
50550;BME280;36505;52.512;13.460;2023-05-10T03:18:13;100625.59;;;8.61;65.44
50550;BME280;36505;52.512;13.460;2023-05-10T03:20:47;100638.56;;;8.66;65.03
50550;BME280;36505;52.512;13.460;2023-05-10T03:23:18;100643.09;;;8.72;65.29
50550;BME280;36505;52.512;13.460;2023-05-10T03:25:48;100644.03;;;8.66;65.24
50550;BME280;36505;52.512;13.460;2023-05-10T03:28:14;100635.25;;;8.64;65.52
50550;BME280;36505;52.512;13.460;2023-05-10T03:30:41;100645.94;;;8.65;65.31
50550;BME280;36505;52.512;13.460;2023-05-10T03:33:08;100645.66;;;8.67;65.20
50550;BME280;36505;52.512;13.460;2023-05-10T03:35:33;100631.22;;;8.66;65.16
50550;BME280;36505;52.512;13.460;2023-05-10T03:37:59;100638.56;;;8.66;65.15
50550;BME280;36505;52.512;13.460;2023-05-10T03:40:26;100625.72;;;8.55;65.25
50550;BME280;36505;52.512;13.460;2023-05-10T03:42:54;100644.03;;;8.66;65.18
50550;BME280;36505;52.512;13.460;2023-05-10T03:45:19;100630.63;;;8.64;65.13
50550;BME280;36505;52.512;13.460;2023-05-10T03:47:45;100639.16;;;8.68;64.98
50550;BME280;36505;52.512;13.460;2023-05-10T03:50:10;100627.06;;;8.64;64.87
50550;BME280;36505;52.512;13.460;2023-05-10T03:52:35;100632.63;;;8.69;64.92
50550;BME280;36505;52.512;13.460;2023-05-10T03:55:01;100631.56;;;8.70;65.11
50550;BME280;36505;52.512;13.460;2023-05-10T03:57:28;100639.53;;;8.71;64.92
50550;BME280;36505;52.512;13.460;2023-05-10T03:59:54;100633.84;;;8.73;64.92
50550;BME280;36505;52.512;13.460;2023-05-10T04:02:19;100639.09;;;8.86;64.43
50550;BME280;36505;52.512;13.460;2023-05-10T04:04:44;100631.84;;;9.15;63.37
50550;BME280;36505;52.512;13.460;2023-05-10T04:07:10;100627.44;;;9.02;63.40
50550;BME280;36505;52.512;13.460;2023-05-10T04:09:35;100636.56;;;9.08;63.25
50550;BME280;36505;52.512;13.460;2023-05-10T04:12:01;100636.47;;;9.38;62.60
50550;BME280;36505;52.512;13.460;2023-05-10T04:14:27;100635.03;;;9.24;62.88
50550;BME280;36505;52.512;13.460;2023-05-10T04:16:53;100608.22;;;8.97;63.05
50550;BME280;36505;52.512;13.460;2023-05-10T04:19:18;100639.19;;;9.15;63.11
50550;BME280;36505;52.512;13.460;2023-05-10T04:21:43;100633.03;;;9.19;62.87
50550;BME280;36505;52.512;13.460;2023-05-10T04:24:09;100629.34;;;9.25;62.68
50550;BME280;36505;52.512;13.460;2023-05-10T04:26:37;100612.13;;;9.25;62.56
50550;BME280;36505;52.512;13.460;2023-05-10T04:29:02;100616.50;;;9.37;61.81
50550;BME280;36505;52.512;13.460;2023-05-10T04:31:28;100628.25;;;9.49;61.48
50550;BME280;36505;52.512;13.460;2023-05-10T04:33:53;100631.81;;;9.62;61.01
50550;BME280;36505;52.512;13.460;2023-05-10T04:36:18;100636.50;;;9.78;60.63
50550;BME280;36505;52.512;13.460;2023-05-10T04:38:44;100617.97;;;9.80;60.15
50550;BME280;36505;52.512;13.460;2023-05-10T04:41:10;100618.50;;;9.94;59.88
50550;BME280;36505;52.512;13.460;2023-05-10T04:43:36;100621.66;;;10.14;59.17
50550;BME280;36505;52.512;13.460;2023-05-10T04:46:03;100622.22;;;10.27;58.84
50550;BME280;36505;52.512;13.460;2023-05-10T04:48:28;100618.69;;;10.44;57.81
50550;BME280;36505;52.512;13.460;2023-05-10T04:50:54;100608.84;;;10.76;57.29
50550;BME280;36505;52.512;13.460;2023-05-10T04:53:19;100625.81;;;12.10;53.74
50550;BME280;36505;52.512;13.460;2023-05-10T04:55:45;100605.00;;;14.09;48.27
50550;BME280;36505;52.512;13.460;2023-05-10T04:58:11;100606.09;;;13.51;48.19
50550;BME280;36505;52.512;13.460;2023-05-10T05:00:36;100619.34;;;12.48;51.19
50550;BME280;36505;52.512;13.460;2023-05-10T05:03:02;100623.19;;;12.20;52.22
50550;BME280;36505;52.512;13.460;2023-05-10T05:05:27;100608.88;;;12.77;50.91
50550;BME280;36505;52.512;13.460;2023-05-10T05:07:52;100614.34;;;13.46;48.76
50550;BME280;36505;52.512;13.460;2023-05-10T05:10:18;100610.66;;;13.77;48.62
50550;BME280;36505;52.512;13.460;2023-05-10T05:12:43;100611.00;;;13.91;47.54
50550;BME280;36505;52.512;13.460;2023-05-10T05:15:09;100610.06;;;14.63;46.17
50550;BME280;36505;52.512;13.460;2023-05-10T05:17:35;100616.38;;;15.29;44.15
50550;BME280;36505;52.512;13.460;2023-05-10T05:20:01;100594.13;;;16.39;41.56
50550;BME280;36505;52.512;13.460;2023-05-10T05:22:26;100593.88;;;17.66;38.96
50550;BME280;36505;52.512;13.460;2023-05-10T05:24:56;100605.88;;;18.42;36.90
50550;BME280;36505;52.512;13.460;2023-05-10T05:27:23;100589.00;;;17.53;38.16
50550;BME280;36505;52.512;13.460;2023-05-10T05:29:53;100584.38;;;18.15;37.11
50550;BME280;36505;52.512;13.460;2023-05-10T05:32:18;100604.41;;;19.01;35.65
50550;BME280;36505;52.512;13.460;2023-05-10T05:34:45;100597.53;;;17.04;39.18
50550;BME280;36505;52.512;13.460;2023-05-10T05:37:18;100610.75;;;17.89;37.99
50550;BME280;36505;52.512;13.460;2023-05-10T05:39:44;100589.38;;;18.88;36.19
50550;BME280;36505;52.512;13.460;2023-05-10T05:42:09;100607.63;;;19.81;34.53
50550;BME280;36505;52.512;13.460;2023-05-10T05:44:35;100586.03;;;20.28;33.25
50550;BME280;36505;52.512;13.460;2023-05-10T05:47:01;100579.53;;;19.96;34.03
50550;BME280;36505;52.512;13.460;2023-05-10T05:49:27;100590.28;;;20.61;32.84
50550;BME280;36505;52.512;13.460;2023-05-10T05:51:52;100581.59;;;21.29;32.01
50550;BME280;36505;52.512;13.460;2023-05-10T05:54:17;100578.50;;;22.19;30.72
50550;BME280;36505;52.512;13.460;2023-05-10T05:56:43;100585.06;;;22.23;30.31
50550;BME280;36505;52.512;13.460;2023-05-10T05:59:09;100597.41;;;22.30;30.19
50550;BME280;36505;52.512;13.460;2023-05-10T06:01:35;100573.44;;;22.46;29.96
50550;BME280;36505;52.512;13.460;2023-05-10T06:04:01;100574.91;;;23.04;29.51
50550;BME280;36505;52.512;13.460;2023-05-10T06:06:26;100579.03;;;22.64;29.58
50550;BME280;36505;52.512;13.460;2023-05-10T06:08:52;100572.13;;;22.44;29.97
50550;BME280;36505;52.512;13.460;2023-05-10T06:11:17;100577.00;;;23.16;29.13
50550;BME280;36505;52.512;13.460;2023-05-10T06:13:42;100588.84;;;23.04;29.28
50550;BME280;36505;52.512;13.460;2023-05-10T06:16:08;100587.06;;;22.65;29.54
50550;BME280;36505;52.512;13.460;2023-05-10T06:18:33;100580.00;;;22.59;29.82
50550;BME280;36505;52.512;13.460;2023-05-10T06:20:59;100580.00;;;22.33;29.98
50550;BME280;36505;52.512;13.460;2023-05-10T06:23:25;100596.72;;;23.19;28.44
50550;BME280;36505;52.512;13.460;2023-05-10T06:25:51;100587.91;;;22.83;29.37
50550;BME280;36505;52.512;13.460;2023-05-10T06:28:17;100577.16;;;23.19;29.15
50550;BME280;36505;52.512;13.460;2023-05-10T06:30:42;100580.28;;;23.73;27.77
50550;BME280;36505;52.512;13.460;2023-05-10T06:33:07;100587.88;;;23.00;28.56
50550;BME280;36505;52.512;13.460;2023-05-10T06:35:33;100580.59;;;23.25;28.77
50550;BME280;36505;52.512;13.460;2023-05-10T06:37:58;100583.78;;;23.91;27.88
50550;BME280;36505;52.512;13.460;2023-05-10T06:40:24;100589.41;;;23.53;28.46
50550;BME280;36505;52.512;13.460;2023-05-10T06:42:49;100584.53;;;23.33;28.52
50550;BME280;36505;52.512;13.460;2023-05-10T06:45:15;100596.13;;;23.43;28.55
50550;BME280;36505;52.512;13.460;2023-05-10T06:47:41;100570.56;;;23.24;28.98
50550;BME280;36505;52.512;13.460;2023-05-10T06:50:09;100576.16;;;23.15;29.22
50550;BME280;36505;52.512;13.460;2023-05-10T06:52:36;100581.50;;;22.74;29.34
50550;BME280;36505;52.512;13.460;2023-05-10T06:55:03;100575.41;;;22.55;29.71
50550;BME280;36505;52.512;13.460;2023-05-10T06:57:29;100582.97;;;22.37;30.06
50550;BME280;36505;52.512;13.460;2023-05-10T06:59:55;100575.72;;;22.96;29.88
50550;BME280;36505;52.512;13.460;2023-05-10T07:02:21;100568.38;;;23.85;28.25
50550;BME280;36505;52.512;13.460;2023-05-10T07:04:47;100584.03;;;23.77;28.51
50550;BME280;36505;52.512;13.460;2023-05-10T07:07:14;100583.59;;;24.25;28.07
50550;BME280;36505;52.512;13.460;2023-05-10T07:09:39;100569.50;;;24.63;27.57
50550;BME280;36505;52.512;13.460;2023-05-10T07:12:04;100594.84;;;25.00;27.15
50550;BME280;36505;52.512;13.460;2023-05-10T07:14:30;100585.00;;;25.72;26.12
50550;BME280;36505;52.512;13.460;2023-05-10T07:16:55;100573.31;;;25.58;26.07
50550;BME280;36505;52.512;13.460;2023-05-10T07:19:20;100578.91;;;25.82;25.75
50550;BME280;36505;52.512;13.460;2023-05-10T07:21:46;100572.25;;;25.86;25.49
50550;BME280;36505;52.512;13.460;2023-05-10T07:24:11;100565.13;;;25.89;26.11
50550;BME280;36505;52.512;13.460;2023-05-10T07:26:36;100582.50;;;26.43;25.53
50550;BME280;36505;52.512;13.460;2023-05-10T07:29:02;100564.66;;;25.87;25.60
50550;BME280;36505;52.512;13.460;2023-05-10T07:31:27;100566.69;;;26.51;25.36
50550;BME280;36505;52.512;13.460;2023-05-10T07:33:53;100553.84;;;26.38;25.34
50550;BME280;36505;52.512;13.460;2023-05-10T07:36:18;100570.00;;;26.68;25.04
50550;BME280;36505;52.512;13.460;2023-05-10T07:38:43;100570.47;;;26.70;24.56
50550;BME280;36505;52.512;13.460;2023-05-10T07:41:09;100581.00;;;26.09;25.56
50550;BME280;36505;52.512;13.460;2023-05-10T07:43:34;100570.66;;;25.40;26.19
50550;BME280;36505;52.512;13.460;2023-05-10T07:46:00;100573.31;;;25.58;26.12
50550;BME280;36505;52.512;13.460;2023-05-10T07:48:25;100568.28;;;26.00;25.51
50550;BME280;36505;52.512;13.460;2023-05-10T07:50:51;100562.16;;;26.34;25.42
50550;BME280;36505;52.512;13.460;2023-05-10T07:53:16;100572.19;;;26.47;25.12
50550;BME280;36505;52.512;13.460;2023-05-10T07:55:43;100569.53;;;27.06;24.63
50550;BME280;36505;52.512;13.460;2023-05-10T07:58:09;100546.50;;;27.01;24.52
50550;BME280;36505;52.512;13.460;2023-05-10T08:00:34;100557.69;;;27.29;24.33
50550;BME280;36505;52.512;13.460;2023-05-10T08:03:00;100566.19;;;28.11;23.59
50550;BME280;36505;52.512;13.460;2023-05-10T08:05:25;100555.44;;;27.81;23.54
50550;BME280;36505;52.512;13.460;2023-05-10T08:07:50;100562.72;;;26.80;24.11
50550;BME280;36505;52.512;13.460;2023-05-10T08:10:16;100564.78;;;26.55;24.54
50550;BME280;36505;52.512;13.460;2023-05-10T08:12:42;100548.63;;;27.35;23.92
50550;BME280;36505;52.512;13.460;2023-05-10T08:15:08;100562.81;;;28.05;23.36
50550;BME280;36505;52.512;13.460;2023-05-10T08:17:33;100571.19;;;28.72;22.58
50550;BME280;36505;52.512;13.460;2023-05-10T08:19:59;100558.94;;;28.45;22.94
50550;BME280;36505;52.512;13.460;2023-05-10T08:22:24;100552.91;;;27.61;23.49
50550;BME280;36505;52.512;13.460;2023-05-10T08:24:49;100564.06;;;26.98;24.40
50550;BME280;36505;52.512;13.460;2023-05-10T08:27:15;100564.09;;;28.08;23.42
50550;BME280;36505;52.512;13.460;2023-05-10T08:29:40;100568.22;;;28.64;22.60
50550;BME280;36505;52.512;13.460;2023-05-10T08:32:06;100557.81;;;29.07;22.48
50550;BME280;36505;52.512;13.460;2023-05-10T08:34:31;100577.66;;;29.14;21.34
50550;BME280;36505;52.512;13.460;2023-05-10T08:36:56;100564.19;;;28.46;22.35
50550;BME280;36505;52.512;13.460;2023-05-10T08:39:22;100561.84;;;27.98;22.96
50550;BME280;36505;52.512;13.460;2023-05-10T08:41:50;100550.41;;;28.60;22.11
50550;BME280;36505;52.512;13.460;2023-05-10T08:44:16;100560.47;;;28.42;22.61
50550;BME280;36505;52.512;13.460;2023-05-10T08:46:46;100579.50;;;28.84;22.15
50550;BME280;36505;52.512;13.460;2023-05-10T08:49:15;100563.63;;;28.06;23.11
50550;BME280;36505;52.512;13.460;2023-05-10T08:51:46;100569.25;;;28.56;22.53
50550;BME280;36505;52.512;13.460;2023-05-10T08:54:14;100578.50;;;28.57;22.66
50550;BME280;36505;52.512;13.460;2023-05-10T08:56:40;100566.25;;;28.30;22.50
50550;BME280;36505;52.512;13.460;2023-05-10T08:59:06;100583.91;;;28.11;22.96
50550;BME280;36505;52.512;13.460;2023-05-10T09:01:32;100570.66;;;27.80;23.40
50550;BME280;36505;52.512;13.460;2023-05-10T09:03:58;100566.19;;;28.11;23.35
50550;BME280;36505;52.512;13.460;2023-05-10T09:06:24;100567.72;;;28.08;23.00
50550;BME280;36505;52.512;13.460;2023-05-10T09:08:50;100564.38;;;27.40;23.74
50550;BME280;36505;52.512;13.460;2023-05-10T09:11:16;100570.97;;;27.16;23.41
50550;BME280;36505;52.512;13.460;2023-05-10T09:13:42;100571.75;;;26.09;25.22
50550;BME280;36505;52.512;13.460;2023-05-10T09:16:09;100569.34;;;25.26;26.33
50550;BME280;36505;52.512;13.460;2023-05-10T09:18:34;100575.53;;;24.86;27.14
50550;BME280;36505;52.512;13.460;2023-05-10T09:21:00;100573.16;;;23.76;28.42
50550;BME280;36505;52.512;13.460;2023-05-10T09:23:25;100584.25;;;23.08;29.33
50550;BME280;36505;52.512;13.460;2023-05-10T09:26:04;100573.28;;;22.52;30.30
50550;BME280;36505;52.512;13.460;2023-05-10T09:28:53;100569.16;;;22.66;30.27
50550;BME280;36505;52.512;13.460;2023-05-10T09:31:19;100565.22;;;22.33;30.82
50550;BME280;36505;52.512;13.460;2023-05-10T09:33:45;100571.59;;;22.08;31.24
50550;BME280;36505;52.512;13.460;2023-05-10T09:36:11;100581.81;;;21.73;31.49
50550;BME280;36505;52.512;13.460;2023-05-10T09:41:21;100581.66;;;21.38;32.68
50550;BME280;36505;52.512;13.460;2023-05-10T09:43:46;100591.25;;;21.54;32.43
50550;BME280;36505;52.512;13.460;2023-05-10T09:46:12;100577.47;;;21.58;32.29
50550;BME280;36505;52.512;13.460;2023-05-10T09:48:42;100577.00;;;21.56;32.58
50550;BME280;36505;52.512;13.460;2023-05-10T09:51:08;100569.06;;;21.41;32.74
50550;BME280;36505;52.512;13.460;2023-05-10T09:53:34;100569.97;;;21.27;33.14
50550;BME280;36505;52.512;13.460;2023-05-10T09:55:59;100579.94;;;20.98;33.21
50550;BME280;36505;52.512;13.460;2023-05-10T09:58:24;100592.25;;;20.83;34.06
50550;BME280;36505;52.512;13.460;2023-05-10T10:00:50;100601.00;;;20.90;33.13
50550;BME280;36505;52.512;13.460;2023-05-10T10:03:19;100593.47;;;20.90;33.52
50550;BME280;36505;52.512;13.460;2023-05-10T10:05:46;100581.94;;;21.06;33.43
50550;BME280;36505;52.512;13.460;2023-05-10T10:08:12;100580.50;;;21.08;33.09
50550;BME280;36505;52.512;13.460;2023-05-10T10:10:39;100591.25;;;21.23;33.61
50550;BME280;36505;52.512;13.460;2023-05-10T10:13:05;100587.22;;;21.38;33.15
50550;BME280;36505;52.512;13.460;2023-05-10T10:15:32;100581.59;;;21.21;33.10
50550;BME280;36505;52.512;13.460;2023-05-10T10:17:58;100567.19;;;21.05;33.54
50550;BME280;36505;52.512;13.460;2023-05-10T10:20:26;100582.78;;;21.06;33.97
50550;BME280;36505;52.512;13.460;2023-05-10T10:22:52;100572.22;;;20.50;34.95
50550;BME280;36505;52.512;13.460;2023-05-10T10:25:19;100588.28;;;20.53;34.83
50550;BME280;36505;52.512;13.460;2023-05-10T10:30:29;100572.84;;;20.47;34.73
50550;BME280;36505;52.512;13.460;2023-05-10T10:35:29;100564.00;;;20.45;35.65
50550;BME280;36505;52.512;13.460;2023-05-10T10:37:55;100559.63;;;20.53;35.15
50550;BME280;36505;52.512;13.460;2023-05-10T10:40:28;100564.75;;;20.59;34.69
50550;BME280;36505;52.512;13.460;2023-05-10T10:42:54;100565.25;;;20.61;34.64
50550;BME280;36505;52.512;13.460;2023-05-10T10:45:20;100578.72;;;20.45;34.44
50550;BME280;36505;52.512;13.460;2023-05-10T10:47:47;100571.53;;;20.31;34.86
50550;BME280;36505;52.512;13.460;2023-05-10T10:50:13;100562.66;;;20.29;34.92
50550;BME280;36505;52.512;13.460;2023-05-10T10:52:45;100574.47;;;20.48;35.66
50550;BME280;36505;52.512;13.460;2023-05-10T10:55:14;100577.84;;;20.59;34.80
50550;BME280;36505;52.512;13.460;2023-05-10T11:07:58;100565.91;;;20.58;34.52
50550;BME280;36505;52.512;13.460;2023-05-10T11:10:25;100554.69;;;20.49;34.84
50550;BME280;36505;52.512;13.460;2023-05-10T11:13:00;100563.13;;;20.58;35.06
50550;BME280;36505;52.512;13.460;2023-05-10T11:17:55;100541.53;;;20.86;34.76
50550;BME280;36505;52.512;13.460;2023-05-10T11:20:21;100557.34;;;20.99;35.09
50550;BME280;36505;52.512;13.460;2023-05-10T11:22:53;100552.41;;;20.96;35.00
50550;BME280;36505;52.512;13.460;2023-05-10T11:25:27;100537.94;;;20.85;35.42
50550;BME280;36505;52.512;13.460;2023-05-10T11:27:53;100542.75;;;20.94;35.05
50550;BME280;36505;52.512;13.460;2023-05-10T11:30:19;100553.38;;;20.92;34.93
50550;BME280;36505;52.512;13.460;2023-05-10T11:32:44;100548.63;;;20.92;34.85
50550;BME280;36505;52.512;13.460;2023-05-10T11:35:10;100551.41;;;20.92;35.12
50550;BME280;36505;52.512;13.460;2023-05-10T11:37:37;100559.50;;;20.80;34.93
50550;BME280;36505;52.512;13.460;2023-05-10T11:40:07;100552.88;;;20.67;35.21
50550;BME280;36505;52.512;13.460;2023-05-10T11:42:38;100545.78;;;20.61;35.22
50550;BME280;36505;52.512;13.460;2023-05-10T11:45:05;100539.06;;;20.62;35.60
50550;BME280;36505;52.512;13.460;2023-05-10T11:47:30;100546.81;;;20.65;35.34
50550;BME280;36505;52.512;13.460;2023-05-10T11:49:56;100536.56;;;20.52;35.61
50550;BME280;36505;52.512;13.460;2023-05-10T11:52:23;100543.56;;;20.49;34.79
50550;BME280;36505;52.512;13.460;2023-05-10T11:54:52;100555.59;;;20.59;34.51
50550;BME280;36505;52.512;13.460;2023-05-10T11:57:19;100557.56;;;20.58;34.37
50550;BME280;36505;52.512;13.460;2023-05-10T11:59:46;100546.28;;;20.63;34.67
50550;BME280;36505;52.512;13.460;2023-05-10T12:02:13;100541.41;;;20.69;34.63
50550;BME280;36505;52.512;13.460;2023-05-10T12:04:38;100540.59;;;20.68;34.89
50550;BME280;36505;52.512;13.460;2023-05-10T12:07:04;100576.28;;;20.66;34.35
50550;BME280;36505;52.512;13.460;2023-05-10T12:09:30;100556.91;;;20.61;34.49
50550;BME280;36505;52.512;13.460;2023-05-10T12:11:55;100549.91;;;20.64;34.41
50550;BME280;36505;52.512;13.460;2023-05-10T12:14:22;100548.75;;;20.65;34.89
50550;BME280;36505;52.512;13.460;2023-05-10T12:16:48;100551.09;;;20.71;34.46
50550;BME280;36505;52.512;13.460;2023-05-10T12:19:18;100562.59;;;20.78;33.59
50550;BME280;36505;52.512;13.460;2023-05-10T12:21:44;100557.34;;;20.77;33.24
50550;BME280;36505;52.512;13.460;2023-05-10T12:24:10;100553.25;;;20.74;33.24
50550;BME280;36505;52.512;13.460;2023-05-10T12:26:36;100548.50;;;20.75;33.25
50550;BME280;36505;52.512;13.460;2023-05-10T12:29:18;100557.28;;;20.90;33.41
50550;BME280;36505;52.512;13.460;2023-05-10T12:31:53;100558.31;;;20.95;32.97
50550;BME280;36505;52.512;13.460;2023-05-10T12:34:27;100565.50;;;20.96;33.02
50550;BME280;36505;52.512;13.460;2023-05-10T12:36:55;100555.31;;;20.91;33.25
50550;BME280;36505;52.512;13.460;2023-05-10T12:39:21;100556.78;;;20.88;33.44
50550;BME280;36505;52.512;13.460;2023-05-10T12:41:46;100560.72;;;20.87;33.93
50550;BME280;36505;52.512;13.460;2023-05-10T12:44:11;100542.69;;;20.85;34.00
50550;BME280;36505;52.512;13.460;2023-05-10T12:46:37;100553.97;;;20.88;34.12
50550;BME280;36505;52.512;13.460;2023-05-10T12:49:02;100560.06;;;20.90;34.19
50550;BME280;36505;52.512;13.460;2023-05-10T12:51:28;100553.69;;;20.90;33.42
50550;BME280;36505;52.512;13.460;2023-05-10T12:53:53;100563.53;;;20.96;31.71
50550;BME280;36505;52.512;13.460;2023-05-10T12:56:19;100577.00;;;21.03;32.54
50550;BME280;36505;52.512;13.460;2023-05-10T12:58:45;100555.25;;;21.05;32.49
50550;BME280;36505;52.512;13.460;2023-05-10T13:01:13;100559.16;;;21.04;32.95
50550;BME280;36505;52.512;13.460;2023-05-10T13:03:39;100563.44;;;21.10;34.08
50550;BME280;36505;52.512;13.460;2023-05-10T13:06:04;100563.97;;;21.12;33.89
50550;BME280;36505;52.512;13.460;2023-05-10T13:08:30;100544.78;;;21.10;33.87
50550;BME280;36505;52.512;13.460;2023-05-10T13:10:59;100556.00;;;21.19;32.47
50550;BME280;36505;52.512;13.460;2023-05-10T13:13:24;100544.47;;;21.12;31.68
50550;BME280;36505;52.512;13.460;2023-05-10T13:15:50;100566.19;;;21.23;31.49
50550;BME280;36505;52.512;13.460;2023-05-10T13:18:15;100560.28;;;21.25;31.52